CYAW/YAW METAR and TAF weather

Enter ICAO airport designator
Station Type Date Time Source
CYAW METAR 2019/10/18 11:00 UTC NOAA

CYAW 181100Z 21009G17KT 15SM BKN032 BKN050 10/09 A2936 RMK SC5SC2 DA422FT SLP943


Station Type Date Time Source
CYAW Decoded METAR 2019/10/18 11:00 UTC NOAA

Shearwater, N. S., Canada (CYAW) 44-38N 063-30W 51M
Oct 18, 2019 - 07:00 AM EDT / 2019.10.18 1100 UTC
Wind: from the SSW (210 degrees) at 10 MPH (9 KT) gusting to 20 MPH (17 KT):0
Visibility: 15 mile(s):0
Sky conditions: mostly cloudy
Temperature: 50 F (10 C)
Dew Point: 48 F (9 C)
Relative Humidity: 93%
Pressure (altimeter): 29.36 in. Hg (994 hPa)
ob: CYAW 181100Z 21009G17KT 15SM BKN032 BKN050 10/09 A2936 RMK SC5SC2 DA422FT SLP943
cycle: 11

Station Type Date Time Source
CYAW TAF 2019/10/18 10:15 UTC NOAA

TAF CYAW 181010Z 1810/1822 20015G25KT P6SM SCT015 BKN030
TEMPO 1810/1815 4SM -SHRA BR BKN015 OVC030
FM181500 22010G20KT P6SM BKN030 BKN250
TEMPO 1815/1822 P6SM -SHRA BKN020
BECMG 1819/1821 27010G20KT
RMK NXT FCST BY 181200Z

Example: see airport list